Rich Fountain, Missouri
Current Conditions -  °F | °C
As of 10:53 AM on Thursday 27 Nov 2014 (Local Time) from KVIH Reporting Station
Overcast Overcast  
Wind Chill: 20°   Ceiling: 1500
Heat Index: 29°   Visibility: 9mi
Dew Point: 24°   Wind: 10mph
Humidity: 82%   Direction: 280°W
Pressure: 30.48"   Gusts: NA
Location:  38.3614°N, 91.929°W
Report Text: KVIH 271653Z AUTO 28009KT 9SM OVC015 M02/M04 A3048 RMK AO2 SLP333 T10171044
Loading
Personal Weather Stations






























Interactive Weather Map New forecast layout! Learn more

10-Day Weather Forecast

Advertisements
Track Severe Weather on mobile